sensor_id;sensor_type;location;lat;lon;timestamp;pressure;altitude;pressure_sealevel;temperature;humidity
75424;BME280;64005;55.160;36.002;2024-03-25T00:02:16;97542.25;;;2.51;73.15
75424;BME280;64005;55.160;36.002;2024-03-25T00:04:42;97545.63;;;2.48;73.12
75424;BME280;64005;55.160;36.002;2024-03-25T00:07:10;97535.13;;;2.42;72.84
75424;BME280;64005;55.160;36.002;2024-03-25T00:09:36;97533.03;;;2.38;72.51
75424;BME280;64005;55.160;36.002;2024-03-25T00:12:04;97541.06;;;2.35;72.57
75424;BME280;64005;55.160;36.002;2024-03-25T00:14:30;97536.84;;;2.29;72.43
75424;BME280;64005;55.160;36.002;2024-03-25T00:16:57;97546.22;;;2.28;71.99
75424;BME280;64005;55.160;36.002;2024-03-25T00:19:25;97550.19;;;2.13;72.57
75424;BME280;64005;55.160;36.002;2024-03-25T00:21:53;97563.38;;;2.03;72.60
75424;BME280;64005;55.160;36.002;2024-03-25T00:24:19;97567.53;;;2.00;72.94
75424;BME280;64005;55.160;36.002;2024-03-25T00:26:47;97570.94;;;1.97;72.97
75424;BME280;64005;55.160;36.002;2024-03-25T00:29:13;97575.91;;;1.95;73.39
75424;BME280;64005;55.160;36.002;2024-03-25T00:31:40;97575.59;;;1.96;73.22
75424;BME280;64005;55.160;36.002;2024-03-25T00:34:07;97579.03;;;2.02;73.19
75424;BME280;64005;55.160;36.002;2024-03-25T00:36:36;97589.53;;;2.09;73.21
75424;BME280;64005;55.160;36.002;2024-03-25T00:39:02;97593.72;;;2.06;73.42
75424;BME280;64005;55.160;36.002;2024-03-25T00:41:29;97596.34;;;2.11;73.39
75424;BME280;64005;55.160;36.002;2024-03-25T00:43:55;97596.34;;;2.11;73.20
75424;BME280;64005;55.160;36.002;2024-03-25T00:46:23;97596.34;;;2.11;73.38
75424;BME280;64005;55.160;36.002;2024-03-25T00:48:49;97604.06;;;2.09;73.36
75424;BME280;64005;55.160;36.002;2024-03-25T00:51:16;97614.41;;;2.12;73.20
75424;BME280;64005;55.160;36.002;2024-03-25T00:53:44;97603.91;;;2.06;73.32
75424;BME280;64005;55.160;36.002;2024-03-25T00:56:12;97603.19;;;2.00;73.86
75424;BME280;64005;55.160;36.002;2024-03-25T00:58:38;97602.09;;;2.01;73.64
75424;BME280;64005;55.160;36.002;2024-03-25T01:01:05;97593.22;;;2.04;73.45
75424;BME280;64005;55.160;36.002;2024-03-25T01:03:31;97610.97;;;2.07;73.36
75424;BME280;64005;55.160;36.002;2024-03-25T01:05:59;97625.38;;;2.12;73.10
75424;BME280;64005;55.160;36.002;2024-03-25T01:08:26;97613.47;;;2.17;73.06
75424;BME280;64005;55.160;36.002;2024-03-25T01:10:54;97610.22;;;2.15;73.15
75424;BME280;64005;55.160;36.002;2024-03-25T01:13:21;97612.16;;;2.14;73.06
75424;BME280;64005;55.160;36.002;2024-03-25T01:15:48;97606.50;;;2.11;73.66
75424;BME280;64005;55.160;36.002;2024-03-25T01:18:15;97614.88;;;2.06;73.24
75424;BME280;64005;55.160;36.002;2024-03-25T01:20:42;97616.91;;;2.00;73.27
75424;BME280;64005;55.160;36.002;2024-03-25T01:23:08;97621.41;;;1.96;73.28
75424;BME280;64005;55.160;36.002;2024-03-25T01:25:35;97622.03;;;1.93;73.61
75424;BME280;64005;55.160;36.002;2024-03-25T01:28:03;97623.78;;;1.89;73.39
75424;BME280;64005;55.160;36.002;2024-03-25T01:30:31;97626.03;;;1.87;72.81
75424;BME280;64005;55.160;36.002;2024-03-25T01:32:58;97626.84;;;1.87;72.92
75424;BME280;64005;55.160;36.002;2024-03-25T01:35:25;97627.47;;;1.84;73.03
75424;BME280;64005;55.160;36.002;2024-03-25T01:37:51;97628.75;;;1.78;72.81
75424;BME280;64005;55.160;36.002;2024-03-25T01:40:19;97631.28;;;1.75;73.05
75424;BME280;64005;55.160;36.002;2024-03-25T01:42:55;97637.41;;;1.72;72.94
75424;BME280;64005;55.160;36.002;2024-03-25T01:45:24;97636.91;;;1.70;72.78
75424;BME280;64005;55.160;36.002;2024-03-25T01:47:51;97631.41;;;1.70;72.91
75424;BME280;64005;55.160;36.002;2024-03-25T01:50:19;97649.22;;;1.81;72.92
75424;BME280;64005;55.160;36.002;2024-03-25T01:52:45;97640.56;;;1.87;73.02
75424;BME280;64005;55.160;36.002;2024-03-25T01:55:17;97641.19;;;1.84;72.83
75424;BME280;64005;55.160;36.002;2024-03-25T01:57:45;97651.88;;;1.94;72.66
75424;BME280;64005;55.160;36.002;2024-03-25T02:00:13;97664.31;;;1.92;73.06
75424;BME280;64005;55.160;36.002;2024-03-25T02:02:41;97647.97;;;1.87;73.29
75424;BME280;64005;55.160;36.002;2024-03-25T02:05:10;97659.06;;;1.82;73.22
75424;BME280;64005;55.160;36.002;2024-03-25T02:07:37;97657.44;;;1.81;72.88
75424;BME280;64005;55.160;36.002;2024-03-25T02:10:08;97654.22;;;1.79;73.35
75424;BME280;64005;55.160;36.002;2024-03-25T02:12:36;97655.66;;;1.76;72.96
75424;BME280;64005;55.160;36.002;2024-03-25T02:15:05;97657.88;;;1.74;73.04
75424;BME280;64005;55.160;36.002;2024-03-25T02:17:32;97658.69;;;1.75;73.34
75424;BME280;64005;55.160;36.002;2024-03-25T02:20:00;97673.50;;;1.74;72.96
75424;BME280;64005;55.160;36.002;2024-03-25T02:22:30;97669.03;;;1.78;72.78
75424;BME280;64005;55.160;36.002;2024-03-25T02:24:57;97678.47;;;1.85;73.09
75424;BME280;64005;55.160;36.002;2024-03-25T02:27:25;97680.06;;;1.86;72.93
75424;BME280;64005;55.160;36.002;2024-03-25T02:29:54;97664.38;;;1.78;73.14
75424;BME280;64005;55.160;36.002;2024-03-25T02:32:21;97680.81;;;1.78;73.42
75424;BME280;64005;55.160;36.002;2024-03-25T02:34:51;97679.63;;;1.71;73.88
75424;BME280;64005;55.160;36.002;2024-03-25T02:37:18;97685.72;;;1.68;73.97
75424;BME280;64005;55.160;36.002;2024-03-25T02:39:46;97692.84;;;1.69;73.33
75424;BME280;64005;55.160;36.002;2024-03-25T02:42:12;97690.28;;;1.72;73.07
75424;BME280;64005;55.160;36.002;2024-03-25T02:44:41;97693.03;;;1.72;73.02
75424;BME280;64005;55.160;36.002;2024-03-25T02:47:09;97700.81;;;1.79;73.24
75424;BME280;64005;55.160;36.002;2024-03-25T02:49:37;97702.94;;;1.82;73.06
75424;BME280;64005;55.160;36.002;2024-03-25T02:52:04;97711.84;;;1.87;72.66
75424;BME280;64005;55.160;36.002;2024-03-25T02:54:31;97714.19;;;1.80;73.05
75424;BME280;64005;55.160;36.002;2024-03-25T02:56:58;97715.13;;;1.76;73.05
75424;BME280;64005;55.160;36.002;2024-03-25T02:59:25;97721.06;;;1.69;73.33
75424;BME280;64005;55.160;36.002;2024-03-25T03:01:53;97739.00;;;1.75;73.47
75424;BME280;64005;55.160;36.002;2024-03-25T03:04:20;97739.81;;;1.76;73.52
75424;BME280;64005;55.160;36.002;2024-03-25T03:06:46;97740.44;;;1.73;73.57
75424;BME280;64005;55.160;36.002;2024-03-25T03:09:14;97734.47;;;1.71;73.33
75424;BME280;64005;55.160;36.002;2024-03-25T03:11:41;97742.84;;;1.74;73.69
75424;BME280;64005;55.160;36.002;2024-03-25T03:14:08;97737.06;;;1.76;73.86
75424;BME280;64005;55.160;36.002;2024-03-25T03:16:34;97746.13;;;1.76;73.37
75424;BME280;64005;55.160;36.002;2024-03-25T03:19:03;97757.38;;;1.75;73.43
75424;BME280;64005;55.160;36.002;2024-03-25T03:21:30;97748.47;;;1.69;73.90
75424;BME280;64005;55.160;36.002;2024-03-25T03:23:57;97756.19;;;1.67;73.97
75424;BME280;64005;55.160;36.002;2024-03-25T03:26:24;97761.06;;;1.70;73.69
75424;BME280;64005;55.160;36.002;2024-03-25T03:28:53;97757.50;;;1.70;73.93
75424;BME280;64005;55.160;36.002;2024-03-25T03:31:19;97766.13;;;1.77;73.55
75424;BME280;64005;55.160;36.002;2024-03-25T03:33:48;97768.72;;;1.82;74.01
75424;BME280;64005;55.160;36.002;2024-03-25T03:36:16;97778.28;;;1.84;73.58
75424;BME280;64005;55.160;36.002;2024-03-25T03:38:44;97782.31;;;1.87;73.69
75424;BME280;64005;55.160;36.002;2024-03-25T03:41:10;97784.56;;;1.85;73.60
75424;BME280;64005;55.160;36.002;2024-03-25T03:43:38;97784.25;;;1.86;73.89
75424;BME280;64005;55.160;36.002;2024-03-25T03:46:04;97790.06;;;1.85;73.72
75424;BME280;64005;55.160;36.002;2024-03-25T03:48:31;97791.69;;;1.86;73.56
75424;BME280;64005;55.160;36.002;2024-03-25T03:50:58;97798.16;;;1.90;73.43
75424;BME280;64005;55.160;36.002;2024-03-25T03:53:27;97802.72;;;1.94;73.41
75424;BME280;64005;55.160;36.002;2024-03-25T03:55:53;97807.72;;;1.92;73.69
75424;BME280;64005;55.160;36.002;2024-03-25T03:58:21;97806.09;;;1.91;73.38
75424;BME280;64005;55.160;36.002;2024-03-25T04:00:47;97817.22;;;1.95;73.37
75424;BME280;64005;55.160;36.002;2024-03-25T04:03:14;97819.69;;;1.96;73.44
75424;BME280;64005;55.160;36.002;2024-03-25T04:05:41;97817.75;;;1.97;73.35
75424;BME280;64005;55.160;36.002;2024-03-25T04:08:08;97826.47;;;1.99;73.52
75424;BME280;64005;55.160;36.002;2024-03-25T04:10:36;97823.75;;;1.99;73.82
75424;BME280;64005;55.160;36.002;2024-03-25T04:13:04;97813.97;;;1.93;73.67
75424;BME280;64005;55.160;36.002;2024-03-25T04:15:32;97827.59;;;1.98;73.67
75424;BME280;64005;55.160;36.002;2024-03-25T04:18:00;97833.25;;;2.02;73.80
75424;BME280;64005;55.160;36.002;2024-03-25T04:20:27;97830.72;;;2.05;73.85
75424;BME280;64005;55.160;36.002;2024-03-25T04:22:55;97835.78;;;2.12;73.75
75424;BME280;64005;55.160;36.002;2024-03-25T04:25:22;97847.53;;;2.26;73.93
75424;BME280;64005;55.160;36.002;2024-03-25T04:27:51;97840.78;;;2.32;73.61
75424;BME280;64005;55.160;36.002;2024-03-25T04:30:17;97847.78;;;2.38;73.80
75424;BME280;64005;55.160;36.002;2024-03-25T04:32:45;97839.41;;;2.43;73.77
75424;BME280;64005;55.160;36.002;2024-03-25T04:35:11;97841.03;;;2.44;73.91
75424;BME280;64005;55.160;36.002;2024-03-25T04:37:38;97852.72;;;2.50;73.98
75424;BME280;64005;55.160;36.002;2024-03-25T04:40:05;97859.53;;;2.52;73.88
75424;BME280;64005;55.160;36.002;2024-03-25T04:42:33;97860.31;;;2.53;73.79
75424;BME280;64005;55.160;36.002;2024-03-25T04:45:00;97857.88;;;2.51;73.97
75424;BME280;64005;55.160;36.002;2024-03-25T04:47:29;97855.03;;;2.56;73.93
75424;BME280;64005;55.160;36.002;2024-03-25T04:49:55;97856.94;;;2.56;74.10
75424;BME280;64005;55.160;36.002;2024-03-25T04:52:21;97860.06;;;2.63;74.07
75424;BME280;64005;55.160;36.002;2024-03-25T04:54:48;97871.94;;;2.72;74.11
75424;BME280;64005;55.160;36.002;2024-03-25T04:57:14;97873.44;;;2.78;73.89
75424;BME280;64005;55.160;36.002;2024-03-25T04:59:41;97866.00;;;2.78;73.90
75424;BME280;64005;55.160;36.002;2024-03-25T05:02:08;97874.09;;;2.84;73.72
75424;BME280;64005;55.160;36.002;2024-03-25T05:04:35;97878.50;;;2.93;73.84
75424;BME280;64005;55.160;36.002;2024-03-25T05:07:01;97878.44;;;3.07;74.04
75424;BME280;64005;55.160;36.002;2024-03-25T05:09:27;97889.84;;;3.23;73.59
75424;BME280;64005;55.160;36.002;2024-03-25T05:11:53;97885.69;;;3.34;74.21
75424;BME280;64005;55.160;36.002;2024-03-25T05:14:19;97893.16;;;3.42;73.24
75424;BME280;64005;55.160;36.002;2024-03-25T05:16:45;97893.53;;;3.49;73.90
75424;BME280;64005;55.160;36.002;2024-03-25T05:19:13;97901.16;;;3.60;73.77
75424;BME280;64005;55.160;36.002;2024-03-25T05:21:39;97910.88;;;3.67;74.04
75424;BME280;64005;55.160;36.002;2024-03-25T05:24:06;97914.19;;;3.77;73.88
75424;BME280;64005;55.160;36.002;2024-03-25T05:26:32;97918.56;;;3.87;74.01
75424;BME280;64005;55.160;36.002;2024-03-25T05:28:58;97918.75;;;3.99;74.36
75424;BME280;64005;55.160;36.002;2024-03-25T05:31:24;97926.06;;;4.12;74.26
75424;BME280;64005;55.160;36.002;2024-03-25T05:33:51;97929.31;;;4.14;73.33
75424;BME280;64005;55.160;36.002;2024-03-25T05:36:19;97924.78;;;4.10;73.92
75424;BME280;64005;55.160;36.002;2024-03-25T05:38:45;97924.94;;;4.05;74.32
75424;BME280;64005;55.160;36.002;2024-03-25T05:41:11;97933.84;;;4.10;73.83
75424;BME280;64005;55.160;36.002;2024-03-25T05:43:38;97933.88;;;4.19;73.49
75424;BME280;64005;55.160;36.002;2024-03-25T05:46:04;97943.91;;;4.15;73.99
75424;BME280;64005;55.160;36.002;2024-03-25T05:48:31;97948.44;;;4.11;73.88
75424;BME280;64005;55.160;36.002;2024-03-25T05:51:01;97943.75;;;4.20;74.04
75424;BME280;64005;55.160;36.002;2024-03-25T05:53:29;97953.31;;;4.22;73.95
75424;BME280;64005;55.160;36.002;2024-03-25T05:55:56;97962.53;;;4.26;74.31
75424;BME280;64005;55.160;36.002;2024-03-25T05:58:22;97963.84;;;4.29;73.72
75424;BME280;64005;55.160;36.002;2024-03-25T06:00:49;97969.66;;;4.27;73.82
75424;BME280;64005;55.160;36.002;2024-03-25T06:03:16;97973.41;;;4.31;74.11
75424;BME280;64005;55.160;36.002;2024-03-25T06:05:43;97988.97;;;4.36;74.14
75424;BME280;64005;55.160;36.002;2024-03-25T06:08:09;97983.00;;;4.51;74.51
75424;BME280;64005;55.160;36.002;2024-03-25T06:10:37;97986.59;;;4.69;74.23
75424;BME280;64005;55.160;36.002;2024-03-25T06:13:04;97995.84;;;4.82;74.33
75424;BME280;64005;55.160;36.002;2024-03-25T06:15:30;97995.16;;;4.67;73.83
75424;BME280;64005;55.160;36.002;2024-03-25T06:17:56;98000.03;;;4.62;73.89
75424;BME280;64005;55.160;36.002;2024-03-25T06:20:22;98005.84;;;4.60;74.14
75424;BME280;64005;55.160;36.002;2024-03-25T06:22:49;98010.41;;;4.73;73.92
75424;BME280;64005;55.160;36.002;2024-03-25T06:25:15;98015.94;;;4.91;74.12
75424;BME280;64005;55.160;36.002;2024-03-25T06:27:43;98020.50;;;5.04;74.12
75424;BME280;64005;55.160;36.002;2024-03-25T06:30:10;98025.03;;;5.08;73.67
75424;BME280;64005;55.160;36.002;2024-03-25T06:32:55;98017.09;;;4.98;73.55
75424;BME280;64005;55.160;36.002;2024-03-25T06:35:42;98028.72;;;4.87;73.19
75424;BME280;64005;55.160;36.002;2024-03-25T06:38:09;98037.16;;;4.82;73.45
75424;BME280;64005;55.160;36.002;2024-03-25T06:40:35;98034.56;;;4.76;73.54
75424;BME280;64005;55.160;36.002;2024-03-25T06:43:03;98050.44;;;4.79;73.26
75424;BME280;64005;55.160;36.002;2024-03-25T06:45:30;98043.97;;;4.75;73.43
75424;BME280;64005;55.160;36.002;2024-03-25T06:47:56;98048.84;;;4.78;73.28
75424;BME280;64005;55.160;36.002;2024-03-25T06:50:22;98046.41;;;4.86;73.45
75424;BME280;64005;55.160;36.002;2024-03-25T06:52:49;98052.75;;;4.95;72.97
75424;BME280;64005;55.160;36.002;2024-03-25T06:55:15;98048.84;;;4.87;72.73
75424;BME280;64005;55.160;36.002;2024-03-25T06:57:42;98048.53;;;4.97;73.63
75424;BME280;64005;55.160;36.002;2024-03-25T07:00:10;98053.25;;;5.23;73.61
75424;BME280;64005;55.160;36.002;2024-03-25T07:02:36;98050.63;;;5.52;73.37
75424;BME280;64005;55.160;36.002;2024-03-25T07:05:03;98055.94;;;5.74;73.04
75424;BME280;64005;55.160;36.002;2024-03-25T07:07:29;98061.78;;;5.81;72.69
75424;BME280;64005;55.160;36.002;2024-03-25T07:09:56;98071.00;;;5.85;72.64
75424;BME280;64005;55.160;36.002;2024-03-25T07:12:22;98068.13;;;5.90;72.21
75424;BME280;64005;55.160;36.002;2024-03-25T07:14:48;98071.38;;;5.84;72.48
75424;BME280;64005;55.160;36.002;2024-03-25T07:17:16;98073.94;;;5.80;72.18
75424;BME280;64005;55.160;36.002;2024-03-25T07:19:42;98085.81;;;5.72;72.22
75424;BME280;64005;55.160;36.002;2024-03-25T07:22:08;98092.00;;;5.78;72.56
75424;BME280;64005;55.160;36.002;2024-03-25T07:24:34;98084.81;;;5.85;72.46
75424;BME280;64005;55.160;36.002;2024-03-25T07:27:01;98083.06;;;5.98;72.64
75424;BME280;64005;55.160;36.002;2024-03-25T07:29:27;98092.91;;;6.16;72.74
75424;BME280;64005;55.160;36.002;2024-03-25T07:31:53;98087.63;;;6.32;72.12
75424;BME280;64005;55.160;36.002;2024-03-25T07:34:21;98098.47;;;6.46;72.64
75424;BME280;64005;55.160;36.002;2024-03-25T07:36:47;98100.94;;;6.38;72.61
75424;BME280;64005;55.160;36.002;2024-03-25T07:39:14;98093.03;;;6.28;72.46
75424;BME280;64005;55.160;36.002;2024-03-25T07:41:40;98095.16;;;6.23;72.54
75424;BME280;64005;55.160;36.002;2024-03-25T07:44:06;98099.06;;;6.22;72.28
75424;BME280;64005;55.160;36.002;2024-03-25T07:46:33;98110.25;;;6.25;72.23
75424;BME280;64005;55.160;36.002;2024-03-25T07:48:59;98097.28;;;6.17;71.87
75424;BME280;64005;55.160;36.002;2024-03-25T07:51:26;98097.31;;;6.00;72.17
75424;BME280;64005;55.160;36.002;2024-03-25T07:53:53;98105.59;;;6.09;71.81
75424;BME280;64005;55.160;36.002;2024-03-25T07:56:19;98109.78;;;6.15;71.71
75424;BME280;64005;55.160;36.002;2024-03-25T07:58:45;98120.53;;;6.16;71.43
75424;BME280;64005;55.160;36.002;2024-03-25T08:01:11;98120.81;;;6.23;71.29
75424;BME280;64005;55.160;36.002;2024-03-25T08:03:37;98119.81;;;6.36;71.73
75424;BME280;64005;55.160;36.002;2024-03-25T08:06:04;98116.03;;;6.41;71.55
75424;BME280;64005;55.160;36.002;2024-03-25T08:08:32;98131.16;;;6.44;72.03
75424;BME280;64005;55.160;36.002;2024-03-25T08:10:58;98133.56;;;6.45;71.90
75424;BME280;64005;55.160;36.002;2024-03-25T08:13:24;98129.03;;;6.41;71.38
75424;BME280;64005;55.160;36.002;2024-03-25T08:15:50;98129.34;;;6.48;71.50
75424;BME280;64005;55.160;36.002;2024-03-25T08:18:16;98122.19;;;6.55;71.21
75424;BME280;64005;55.160;36.002;2024-03-25T08:20:43;98132.75;;;6.53;71.63
75424;BME280;64005;55.160;36.002;2024-03-25T08:23:09;98137.16;;;6.46;71.13
75424;BME280;64005;55.160;36.002;2024-03-25T08:25:36;98133.81;;;6.31;70.85
75424;BME280;64005;55.160;36.002;2024-03-25T08:28:03;98125.53;;;6.23;71.13
75424;BME280;64005;55.160;36.002;2024-03-25T08:30:30;98120.16;;;6.26;70.97
75424;BME280;64005;55.160;36.002;2024-03-25T08:32:56;98123.50;;;6.49;71.05
75424;BME280;64005;55.160;36.002;2024-03-25T08:35:22;98136.19;;;6.79;71.20
75424;BME280;64005;55.160;36.002;2024-03-25T08:37:48;98122.22;;;7.05;71.25
75424;BME280;64005;55.160;36.002;2024-03-25T08:40:15;98129.31;;;7.24;70.68
75424;BME280;64005;55.160;36.002;2024-03-25T08:42:42;98132.78;;;7.33;70.57
75424;BME280;64005;55.160;36.002;2024-03-25T08:45:09;98130.84;;;7.33;70.44
75424;BME280;64005;55.160;36.002;2024-03-25T08:47:35;98140.25;;;7.11;70.20
75424;BME280;64005;55.160;36.002;2024-03-25T08:50:01;98135.34;;;6.88;69.49
75424;BME280;64005;55.160;36.002;2024-03-25T08:52:29;98138.84;;;6.76;69.74
75424;BME280;64005;55.160;36.002;2024-03-25T08:54:55;98128.91;;;6.75;69.26
75424;BME280;64005;55.160;36.002;2024-03-25T08:57:22;98134.72;;;6.82;69.36
75424;BME280;64005;55.160;36.002;2024-03-25T08:59:49;98138.31;;;6.83;69.08
75424;BME280;64005;55.160;36.002;2024-03-25T09:02:16;98133.59;;;6.83;69.62
75424;BME280;64005;55.160;36.002;2024-03-25T09:04:42;98141.97;;;6.95;70.36
75424;BME280;64005;55.160;36.002;2024-03-25T09:07:08;98140.22;;;7.20;70.04
75424;BME280;64005;55.160;36.002;2024-03-25T09:09:34;98141.69;;;7.38;70.21
75424;BME280;64005;55.160;36.002;2024-03-25T09:12:46;98139.44;;;7.61;70.27
75424;BME280;64005;55.160;36.002;2024-03-25T09:15:14;98142.69;;;7.63;69.50
75424;BME280;64005;55.160;36.002;2024-03-25T09:17:40;98150.06;;;7.71;69.31
75424;BME280;64005;55.160;36.002;2024-03-25T09:20:07;98150.34;;;7.78;69.23
75424;BME280;64005;55.160;36.002;2024-03-25T09:22:34;98150.16;;;7.83;68.99
75424;BME280;64005;55.160;36.002;2024-03-25T09:25:00;98152.94;;;7.83;69.00
75424;BME280;64005;55.160;36.002;2024-03-25T09:27:26;98150.63;;;7.85;68.86
75424;BME280;64005;55.160;36.002;2024-03-25T09:29:52;98152.00;;;8.12;69.29
75424;BME280;64005;55.160;36.002;2024-03-25T09:32:20;98155.03;;;8.52;69.63
75424;BME280;64005;55.160;36.002;2024-03-25T09:34:47;98149.22;;;8.90;69.61
75424;BME280;64005;55.160;36.002;2024-03-25T09:37:13;98154.75;;;9.27;69.80
75424;BME280;64005;55.160;36.002;2024-03-25T10:00:33;98167.78;;;9.50;67.90
75424;BME280;64005;55.160;36.002;2024-03-25T10:03:00;98132.31;;;9.20;67.11
75424;BME280;64005;55.160;36.002;2024-03-25T10:05:37;98173.47;;;9.17;66.82
75424;BME280;64005;55.160;36.002;2024-03-25T10:08:05;98159.03;;;8.88;66.86
75424;BME280;64005;55.160;36.002;2024-03-25T10:10:47;98166.84;;;8.73;66.87
75424;BME280;64005;55.160;36.002;2024-03-25T10:13:27;98162.53;;;8.52;66.69
75424;BME280;64005;55.160;36.002;2024-03-25T10:15:55;98173.25;;;8.41;65.69
75424;BME280;64005;55.160;36.002;2024-03-25T10:18:21;98169.84;;;8.23;65.62
75424;BME280;64005;55.160;36.002;2024-03-25T10:20:48;98170.31;;;8.05;65.79
75424;BME280;64005;55.160;36.002;2024-03-25T10:23:14;98171.41;;;7.91;65.84
75424;BME280;64005;55.160;36.002;2024-03-25T10:25:40;98175.25;;;7.78;65.81
75424;BME280;64005;55.160;36.002;2024-03-25T10:28:08;98172.22;;;7.71;65.64
75424;BME280;64005;55.160;36.002;2024-03-25T10:30:34;98180.75;;;7.66;65.75
75424;BME280;64005;55.160;36.002;2024-03-25T10:33:03;98182.97;;;7.73;66.59
75424;BME280;64005;55.160;36.002;2024-03-25T10:35:31;98179.28;;;7.89;66.68
75424;BME280;64005;55.160;36.002;2024-03-25T10:37:59;98178.22;;;8.15;66.79
75424;BME280;64005;55.160;36.002;2024-03-25T10:40:28;98169.34;;;8.42;66.99
75424;BME280;64005;55.160;36.002;2024-03-25T10:43:00;98165.22;;;8.60;66.82
75424;BME280;64005;55.160;36.002;2024-03-25T10:45:28;98174.94;;;8.78;67.04
75424;BME280;64005;55.160;36.002;2024-03-25T10:47:57;98163.88;;;9.03;67.03
75424;BME280;64005;55.160;36.002;2024-03-25T10:51:01;98174.41;;;9.22;67.54
75424;BME280;64005;55.160;36.002;2024-03-25T10:53:28;98181.91;;;9.45;67.22
75424;BME280;64005;55.160;36.002;2024-03-25T10:55:55;98184.44;;;9.63;66.66
75424;BME280;64005;55.160;36.002;2024-03-25T10:58:23;98179.19;;;9.73;66.41
75424;BME280;64005;55.160;36.002;2024-03-25T11:00:50;98172.00;;;9.72;65.70
75424;BME280;64005;55.160;36.002;2024-03-25T11:03:26;98170.53;;;9.63;65.19
75424;BME280;64005;55.160;36.002;2024-03-25T11:06:13;98169.75;;;9.50;65.87
75424;BME280;64005;55.160;36.002;2024-03-25T11:08:39;98173.00;;;9.40;65.43
75424;BME280;64005;55.160;36.002;2024-03-25T11:11:06;98169.53;;;9.31;65.53
75424;BME280;64005;55.160;36.002;2024-03-25T11:13:32;98164.34;;;9.29;65.55
75424;BME280;64005;55.160;36.002;2024-03-25T11:15:58;98171.38;;;9.27;65.60
75424;BME280;64005;55.160;36.002;2024-03-25T11:18:25;98154.41;;;9.16;64.96
75424;BME280;64005;55.160;36.002;2024-03-25T11:21:02;98173.47;;;9.17;64.81
75424;BME280;64005;55.160;36.002;2024-03-25T11:23:38;98175.78;;;9.15;64.75
75424;BME280;64005;55.160;36.002;2024-03-25T11:26:16;98176.81;;;9.11;64.62
75424;BME280;64005;55.160;36.002;2024-03-25T11:28:44;98167.81;;;9.14;64.53
75424;BME280;64005;55.160;36.002;2024-03-25T11:31:10;98167.13;;;9.17;64.62
75424;BME280;64005;55.160;36.002;2024-03-25T11:33:38;98167.56;;;9.19;64.51
75424;BME280;64005;55.160;36.002;2024-03-25T11:36:05;98170.91;;;9.25;64.48
75424;BME280;64005;55.160;36.002;2024-03-25T11:38:31;98165.84;;;9.27;64.32
75424;BME280;64005;55.160;36.002;2024-03-25T11:41:00;98175.44;;;9.29;64.60
75424;BME280;64005;55.160;36.002;2024-03-25T11:43:27;98166.56;;;9.24;64.46
75424;BME280;64005;55.160;36.002;2024-03-25T11:45:53;98171.72;;;9.25;64.45
75424;BME280;64005;55.160;36.002;2024-03-25T11:48:19;98177.41;;;9.29;64.00
75424;BME280;64005;55.160;36.002;2024-03-25T11:50:46;98177.06;;;9.30;63.87
75424;BME280;64005;55.160;36.002;2024-03-25T11:53:13;98172.53;;;9.26;63.66
75424;BME280;64005;55.160;36.002;2024-03-25T11:55:40;98165.75;;;9.23;63.79
75424;BME280;64005;55.160;36.002;2024-03-25T11:58:08;98165.97;;;9.30;63.71
75424;BME280;64005;55.160;36.002;2024-03-25T12:00:34;98164.56;;;9.36;63.97
75424;BME280;64005;55.160;36.002;2024-03-25T12:03:00;98171.94;;;9.44;64.06
75424;BME280;64005;55.160;36.002;2024-03-25T12:05:27;98163.84;;;9.51;63.92
75424;BME280;64005;55.160;36.002;2024-03-25T12:08:00;98161.75;;;9.61;64.33
75424;BME280;64005;55.160;36.002;2024-03-25T12:10:45;98171.22;;;9.72;64.55
75424;BME280;64005;55.160;36.002;2024-03-25T12:13:43;98151.97;;;9.79;64.20
75424;BME280;64005;55.160;36.002;2024-03-25T12:16:10;98160.88;;;9.84;63.67
75424;BME280;64005;55.160;36.002;2024-03-25T12:18:36;98159.16;;;9.80;64.01
75424;BME280;64005;55.160;36.002;2024-03-25T12:21:04;98168.09;;;9.73;64.09
75424;BME280;64005;55.160;36.002;2024-03-25T12:23:31;98168.69;;;9.67;64.45
75424;BME280;64005;55.160;36.002;2024-03-25T12:26:16;98183.50;;;9.58;64.43
75424;BME280;64005;55.160;36.002;2024-03-25T12:28:44;98180.97;;;9.53;64.31
75424;BME280;64005;55.160;36.002;2024-03-25T12:34:16;98190.69;;;9.47;63.75
75424;BME280;64005;55.160;36.002;2024-03-25T12:36:43;98183.19;;;9.48;63.28
75424;BME280;64005;55.160;36.002;2024-03-25T12:39:15;98188.00;;;9.51;62.98
75424;BME280;64005;55.160;36.002;2024-03-25T12:41:43;98183.19;;;9.48;63.44
75424;BME280;64005;55.160;36.002;2024-03-25T12:44:12;98189.19;;;9.50;63.33
75424;BME280;64005;55.160;36.002;2024-03-25T12:46:39;98182.94;;;9.53;63.50
75424;BME280;64005;55.160;36.002;2024-03-25T12:49:05;98182.59;;;9.54;63.04
75424;BME280;64005;55.160;36.002;2024-03-25T12:51:31;98187.00;;;9.55;63.41
75424;BME280;64005;55.160;36.002;2024-03-25T12:53:58;98185.47;;;9.58;63.28
75424;BME280;64005;55.160;36.002;2024-03-25T12:56:24;98192.53;;;9.55;63.16
75424;BME280;64005;55.160;36.002;2024-03-25T12:58:50;98185.72;;;9.53;63.02
75424;BME280;64005;55.160;36.002;2024-03-25T13:01:18;98198.09;;;9.55;62.90
75424;BME280;64005;55.160;36.002;2024-03-25T13:03:45;98191.97;;;9.50;62.93
75424;BME280;64005;55.160;36.002;2024-03-25T13:06:11;98197.28;;;9.43;62.69
75424;BME280;64005;55.160;36.002;2024-03-25T13:08:37;98190.56;;;9.32;62.02
75424;BME280;64005;55.160;36.002;2024-03-25T13:11:03;98186.66;;;9.21;62.09
75424;BME280;64005;55.160;36.002;2024-03-25T13:13:29;98186.66;;;9.21;62.56
75424;BME280;64005;55.160;36.002;2024-03-25T13:15:56;98185.16;;;9.23;62.60
75424;BME280;64005;55.160;36.002;2024-03-25T13:18:23;98186.91;;;9.15;62.26
75424;BME280;64005;55.160;36.002;2024-03-25T13:20:49;98184.13;;;9.03;61.59
75424;BME280;64005;55.160;36.002;2024-03-25T13:23:16;98179.00;;;8.93;61.30
75424;BME280;64005;55.160;36.002;2024-03-25T13:25:42;98178.19;;;8.81;61.75
75424;BME280;64005;55.160;36.002;2024-03-25T13:28:08;98181.06;;;8.72;61.53